Burrton, Kansas
Current Conditions -  °F | °C
As of 3:52 AM on Friday 31 Oct 2014 (Local Time) from KHUT Reporting Station
Overcast Overcast  
Wind Chill: 38°   Ceiling: 1700
Heat Index: 45°   Visibility: 10mi
Dew Point: 36°   Wind: 15mph
Humidity: 71%   Direction: 360°N
Pressure: 30.39"   Gusts: 25mph
Location:  38.02°N, 97.67°W
Report Text: KHUT 310852Z AUTO 36013G22KT 10SM OVC017 07/02 A3039 RMK AO2 SLP279 T00720022 51016
Loading
Personal Weather Stations






























Interactive Weather Map
Tropical Storm Tracking
New forecast layout! Learn more

10-Day Weather Forecast

Advertisements
Track Severe Weather on mobile